Nine Mile Falls, WA (99026)

6:45 PM PDT on April 26, 2017 (GMT -0700)
Nine Mile Falls | | Change Station

Elev 1536 ft 47.80 °N, 117.55 °W | Updated 60 seconds ago

Mostly Cloudy
Mostly Cloudy
54.0 °F
Feels Like 54.0 °F
N
3.0
Wind Variable Wind from NNW

Today
High -- | Low -- °F
--% Chance of Precip.
Yesterday
High -- | Low -- °F
Precip. -- in
Pressure 29.66 in
Visibility 10.0 miles
Clouds Few 3900 ft
Few 4900 ft
Few 6500 ft
Mostly Cloudy 20000 ft
Dew Point 39 °F
Humidity 58%
Rainfall 0.02 in
Snow Depth Not available.
5:40 AM 7:56 PM
New Moon, 0% visible
METAR KGEG 270053Z 23020G27KT 10SM FEW039 FEW049 FEW065 BKN200 12/02 A2965 RMK AO2 PK WND 24027/0050 RAB2355E28 SLP043 LTG DSNT NE CB DSNT N-NE-SE VCSH NE P0000 T01220017
Pressure 29.66 in
Visibility 10.0 miles
Clouds Few 3900 ft
Few 4900 ft
Few 6500 ft
Mostly Cloudy 20000 ft
Dew Point 39 °F
Humidity 58%
Rainfall 0.02 in
Snow Depth Not available.
5:40 AM 7:56 PM
New Moon, 0% visible
METAR KGEG 270053Z 23020G27KT 10SM FEW039 FEW049 FEW065 BKN200 12/02 A2965 RMK AO2 PK WND 24027/0050 RAB2355E28 SLP043 LTG DSNT NE CB DSNT N-NE-SE VCSH NE P0000 T01220017

Get Severe Weather Alerts

Thanks for signing up!

Be on the lookout for a verification email in your inbox.

You'll start receiving the daily forecast at 8 AM.

×

10-Day Weather Forecast

Almanac

Astronomy

Apr. 26, 2017 Rise Set
Actual Time
Civil Twilight
Nautical Twilight
Astronomical Twilight
Moon
Length of Visible Light
Length of Day
Tomorrow will be .
, % of the Moon is Illuminated

Today's Extremes

State Highs State Lows

Community

WunderPhotos

WunderBlog® & News

Nearby

Air Quality

  Air Quality AQ Index Pollutant
Not available.

Snow Depth

Station Depth Elevation

Earthquake Activity

City Distance Mag. Time & Date
Minimum magnitude displayed is 2.5.

Coastal Water Temperatures

Place Temperature

Stations

Nearby Weather Stations

Station Location Temp. Windchill Dew Point Humidity Wind Precip. Elev Updated Type
                   

Watches & Warnings

There are currently no watches in effect.